Time;durP1;ratioP1;P1;durP2;ratioP2;P2;SDS_P1;SDS_P2;PMS_P1;PMS_P2;Temp;Humidity;BMP_temperature;BMP_pressure;BME280_temperature;BME280_humidity;BME280_pressure;Samples;Min_cycle;Max_cycle;Signal;HPM_P1;HPM_P2
2022/01/31 00:01:03;;;;;;;22.23;4.13;;;;;;;4.06;89.95;100755.66;5240016;28;20912;-79
2022/01/31 00:03:34;;;;;;;23.92;3.70;;;;;;;4.00;90.02;100751.41;5239681;28;20370;-79
2022/01/31 00:06:05;;;;;;;18.80;3.70;;;;;;;4.06;89.79;100743.59;5229302;28;20511;-80
2022/01/31 00:08:35;;;;;;;27.25;3.92;;;;;;;4.05;90.23;100726.38;5236643;28;20491;-79
2022/01/31 00:11:05;;;;;;;27.13;3.38;;;;;;;4.02;91.09;100725.53;5239994;28;20614;-80
2022/01/31 00:13:40;;;;;;;28.02;3.65;;;;;;;4.02;90.12;100725.53;5240186;28;20029;-81
2022/01/31 00:16:15;;;;;;;22.13;3.53;;;;;;;4.06;90.83;100714.28;5232996;28;20123;-80
2022/01/31 00:18:46;;;;;;;;;;;;;;;4.11;89.89;100710.78;5240671;28;20033;-79
2022/01/31 00:21:16;;;;;;;25.93;3.93;;;;;;;4.12;89.40;100706.50;5238401;28;20455;-79
2022/01/31 00:23:46;;;;;;;25.23;3.80;;;;;;;4.12;89.98;100702.16;5238024;28;20286;-79
2022/01/31 00:26:16;;;;;;;19.38;3.50;;;;;;;4.13;90.48;100682.34;5228952;28;20025;-79
2022/01/31 00:28:46;;;;;;;20.10;3.13;;;;;;;4.19;88.44;100675.41;5235614;28;20510;-79
2022/01/31 00:31:17;;;;;;;21.80;3.83;;;;;;;4.11;89.24;100672.00;5236029;28;20470;-79
2022/01/31 00:33:47;;;;;;;29.58;4.07;;;;;;;4.11;89.21;100653.91;5238920;28;20044;-79
2022/01/31 00:36:18;;;;;;;29.02;3.50;;;;;;;4.20;89.19;100642.63;5228716;28;20378;-79
2022/01/31 00:38:48;;;;;;;29.27;4.45;;;;;;;4.11;88.87;100628.06;5234848;28;20105;-79
2022/01/31 00:41:18;;;;;;;22.88;3.67;;;;;;;4.12;88.38;100629.75;5242306;28;20031;-79
2022/01/31 00:44:16;;;;;;;25.77;3.67;;;;;;;4.25;88.26;100609.81;5241887;28;20125;-79
2022/01/31 00:46:43;;;;;;;24.58;4.07;;;;;;;4.36;87.84;100613.16;5235081;28;20039;-79
2022/01/31 00:49:24;;;;;;;21.20;4.00;;;;;;;4.28;88.50;100599.47;5242563;28;20020;-79
2022/01/31 00:51:54;;;;;;;27.83;3.50;;;;;;;4.34;89.19;100602.84;5242636;28;20593;-79
2022/01/31 00:54:24;;;;;;;21.73;3.88;;;;;;;4.20;88.52;100602.13;5238392;28;20040;-79
2022/01/31 00:56:55;;;;;;;30.63;3.90;;;;;;;4.15;88.77;100596.13;5232451;28;20044;-79
2022/01/31 00:59:25;;;;;;;20.67;3.35;;;;;;;4.10;89.22;100581.53;5227714;28;20193;-79
2022/01/31 01:01:56;;;;;;;20.88;3.42;;;;;;;4.04;89.14;100566.94;5222222;28;20029;-79
2022/01/31 01:04:26;;;;;;;25.55;3.78;;;;;;;4.19;89.41;100564.22;5218085;28;20033;-79
2022/01/31 01:06:57;;;;;;;22.63;3.65;;;;;;;4.15;89.51;100549.56;5223698;28;20027;-79
2022/01/31 01:09:27;;;;;;;28.55;3.50;;;;;;;4.02;89.51;100540.25;5229102;28;20102;-79
2022/01/31 01:11:57;;;;;;;29.67;3.92;;;;;;;4.11;89.06;100522.03;5214924;28;20792;-79
2022/01/31 01:14:28;;;;;;;28.70;3.40;;;;;;;4.02;89.02;100510.94;5224241;28;20025;-79
2022/01/31 01:16:58;;;;;;;23.50;3.13;;;;;;;3.98;89.83;100504.94;5226423;28;20020;-79
2022/01/31 01:19:28;;;;;;;23.58;3.78;;;;;;;3.96;90.34;100488.59;5231405;28;20036;-79
2022/01/31 01:21:59;;;;;;;27.25;3.83;;;;;;;3.98;90.50;100484.25;5241919;28;20028;-79
2022/01/31 01:24:30;;;;;;;29.25;3.47;;;;;;;3.95;90.74;100480.88;5238342;28;20043;-79
2022/01/31 01:27:00;;;;;;;20.30;2.85;;;;;;;4.02;90.26;100460.09;5227615;28;20037;-79
2022/01/31 01:29:30;;;;;;;24.02;3.38;;;;;;;4.05;90.55;100469.53;5231194;28;20028;-79
2022/01/31 01:32:01;;;;;;;29.02;3.70;;;;;;;4.00;90.55;100464.44;5230602;28;20482;-79
2022/01/31 01:34:33;;;;;;;22.00;3.33;;;;;;;3.92;90.11;100455.06;5238277;28;20551;-79
2022/01/31 01:37:04;;;;;;;28.02;4.03;;;;;;;3.92;90.35;100440.38;5226669;28;20460;-79
2022/01/31 01:39:34;;;;;;;26.23;4.07;;;;;;;3.91;89.96;100438.69;5230370;28;20115;-79
2022/01/31 01:42:05;;;;;;;24.80;3.90;;;;;;;3.85;90.67;100438.75;5229608;28;20496;-79
2022/01/31 01:44:46;;;;;;;24.50;4.05;;;;;;;3.77;90.39;100429.38;5228337;28;20035;-79
2022/01/31 01:47:18;;;;;;;20.83;3.00;;;;;;;3.84;89.50;100411.19;5222918;28;20024;-79
2022/01/31 01:49:50;;;;;;;25.08;3.92;;;;;;;3.77;90.14;100398.38;5229051;28;20604;-79
2022/01/31 01:52:20;;;;;;;33.58;3.75;;;;;;;3.75;90.21;100377.69;5228179;28;20080;-79
2022/01/31 01:54:51;;;;;;;30.73;3.85;;;;;;;3.78;89.46;100346.66;5225074;28;20479;-79
2022/01/31 01:57:23;;;;;;;19.77;3.22;;;;;;;3.77;90.40;100336.34;5224275;28;20053;-79
2022/01/31 01:59:56;;;;;;;27.98;3.90;;;;;;;3.74;91.09;100310.50;5230557;28;20051;-79
2022/01/31 02:02:26;;;;;;;25.63;3.25;;;;;;;3.72;90.92;100317.44;5226128;28;20682;-79
2022/01/31 02:04:57;;;;;;;23.70;3.47;;;;;;;3.73;90.81;100317.44;5226309;28;20032;-79
2022/01/31 02:07:28;;;;;;;26.73;3.45;;;;;;;3.75;91.19;100305.34;5224791;28;20394;-79
2022/01/31 02:09:58;;;;;;;29.65;4.00;;;;;;;3.80;90.86;100290.63;5230177;28;20033;-79
2022/01/31 02:12:43;;;;;;;30.25;3.60;;;;;;;3.60;92.44;100287.44;5229226;28;20039;-79
2022/01/31 02:15:15;;;;;;;16.60;2.80;;;;;;;3.66;92.27;100287.38;5224963;28;20037;-79
2022/01/31 02:17:46;;;;;;;31.35;3.80;;;;;;;3.74;92.13;100272.63;5227781;28;20671;-79
2022/01/31 02:20:16;;;;;;;20.63;3.42;;;;;;;3.67;92.01;100255.50;5227087;28;20039;-79
2022/01/31 02:22:47;;;;;;;22.52;3.75;;;;;;;3.73;91.76;100259.72;5227747;28;20032;-79
2022/01/31 02:25:17;;;;;;;26.40;3.08;;;;;;;3.77;92.27;100243.31;5228234;28;20729;-79
2022/01/31 02:27:48;;;;;;;28.00;3.35;;;;;;;3.76;92.65;100224.38;5233171;28;20040;-80
2022/01/31 02:30:19;;;;;;;28.10;3.85;;;;;;;3.80;93.42;100207.94;5241597;28;20093;-79
2022/01/31 02:32:49;;;;;;;27.85;3.78;;;;;;;3.63;94.27;100209.06;5239835;28;20611;-79
2022/01/31 02:35:19;;;;;;;28.95;3.10;;;;;;;3.48;94.50;100216.13;5233339;28;20028;-79
2022/01/31 02:37:49;;;;;;;25.17;3.42;;;;;;;3.43;95.92;100212.78;5232656;28;20476;-79
2022/01/31 02:40:20;;;;;;;18.63;3.55;;;;;;;3.59;94.74;100204.81;5240065;28;20035;-79
2022/01/31 02:42:51;;;;;;;26.63;4.32;;;;;;;3.60;93.72;100193.63;5240247;28;20033;-80
2022/01/31 02:45:22;;;;;;;25.17;3.38;;;;;;;3.55;93.51;100179.88;5239710;28;20028;-79
2022/01/31 02:47:55;;;;;;;20.10;3.20;;;;;;;3.60;93.92;100173.78;5240140;28;20035;-79
2022/01/31 02:50:26;;;;;;;27.67;3.38;;;;;;;3.63;93.23;100162.56;5240329;28;20036;-79
2022/01/31 02:53:10;;;;;;;28.27;3.67;;;;;;;3.61;93.85;100144.50;5239689;28;20413;-79
2022/01/31 02:55:43;;;;;;;20.63;3.30;;;;;;;3.53;94.20;100136.88;5225266;28;20032;-79
2022/01/31 02:58:15;;;;;;;27.52;3.75;;;;;;;3.53;94.78;100126.56;5232077;28;20524;-79
2022/01/31 03:00:46;;;;;;;26.98;3.75;;;;;;;3.63;94.07;100126.41;5240057;28;20020;-79
2022/01/31 03:03:16;;;;;;;22.25;3.50;;;;;;;3.61;94.04;100117.81;5239662;28;20093;-79
2022/01/31 03:05:47;;;;;;;22.70;3.40;;;;;;;3.73;93.68;100097.81;5232099;28;20048;-79
2022/01/31 03:08:17;;;;;;;25.75;3.78;;;;;;;3.68;93.14;100091.00;5233331;28;20063;-79
2022/01/31 03:10:48;;;;;;;30.00;3.72;;;;;;;3.77;92.84;100076.19;5238936;28;20449;-79
2022/01/31 03:13:19;;;;;;;19.40;3.95;;;;;;;3.78;92.80;100077.91;5239839;28;20029;-79
2022/01/31 03:15:51;;;;;;;23.08;3.72;;;;;;;3.69;93.49;100070.31;5239886;28;20029;-79
2022/01/31 03:18:22;;;;;;;19.98;3.38;;;;;;;3.77;93.39;100062.44;5238827;28;20513;-79
2022/01/31 03:20:52;;;;;;;23.25;3.50;;;;;;;3.84;92.59;100054.56;5239520;28;20081;-79
2022/01/31 03:23:22;;;;;;;24.75;3.58;;;;;;;3.83;92.57;100047.69;5238896;28;20090;-79
2022/01/31 03:25:53;;;;;;;24.95;4.32;;;;;;;3.80;93.12;100037.38;5230539;28;20030;-79
2022/01/31 03:28:23;;;;;;;16.52;3.13;;;;;;;3.78;93.57;100031.41;5233850;28;20052;-79
2022/01/31 03:30:53;;;;;;;20.48;3.45;;;;;;;3.72;94.61;100023.75;5239379;28;20093;-79
2022/01/31 03:33:24;;;;;;;21.25;3.53;;;;;;;3.67;94.29;100004.03;5238987;28;20034;-79
2022/01/31 03:35:54;;;;;;;26.70;3.78;;;;;;;3.69;93.91;99991.94;5230808;28;20086;-79
2022/01/31 03:38:24;;;;;;;28.30;3.75;;;;;;;3.43;94.52;99970.91;5234230;28;20036;-79
2022/01/31 03:40:54;;;;;;;21.25;3.38;;;;;;;3.46;95.51;99963.09;5239045;28;20111;-79
2022/01/31 03:43:25;;;;;;;30.05;3.42;;;;;;;3.35;96.35;99943.50;5238885;28;20115;-81
2022/01/31 03:45:55;;;;;;;24.55;3.50;;;;;;;3.19;97.29;99947.22;5240234;28;20028;-79
2022/01/31 03:48:28;;;;;;;22.75;3.50;;;;;;;3.18;98.42;99936.00;5239616;28;20116;-79
2022/01/31 03:50:59;;;;;;;16.10;3.10;;;;;;;3.31;97.55;99932.34;5240226;28;20615;-82
2022/01/31 03:53:30;;;;;;;20.17;3.22;;;;;;;3.24;96.00;99914.41;5239887;28;20025;-79
2022/01/31 03:56:01;;;;;;;26.65;3.58;;;;;;;3.28;94.61;99916.94;5229987;28;20033;-81
2022/01/31 03:58:31;;;;;;;25.30;3.45;;;;;;;3.21;94.93;99901.56;5235462;28;20540;-79
2022/01/31 04:01:02;;;;;;;16.70;2.83;;;;;;;3.24;96.42;99889.47;5239710;28;20173;-79
2022/01/31 04:03:34;;;;;;;23.02;3.85;;;;;;;3.15;97.14;99888.75;5240197;28;20110;-79
2022/01/31 04:06:04;;;;;;;17.50;3.10;;;;;;;3.38;96.63;99869.38;5230354;28;20704;-79
2022/01/31 04:08:35;;;;;;;20.23;3.30;;;;;;;3.40;97.02;99859.88;5236868;28;20044;-78
2022/01/31 04:11:05;;;;;;;23.05;3.28;;;;;;;3.46;95.78;99856.34;5239889;28;20032;-79
2022/01/31 04:13:36;;;;;;;24.58;3.38;;;;;;;3.50;96.10;99834.78;5240137;28;20028;-80
2022/01/31 04:16:06;;;;;;;19.85;3.97;;;;;;;3.44;96.04;99824.53;5241918;28;20149;-79
2022/01/31 04:18:37;;;;;;;15.77;3.33;;;;;;;3.49;96.34;99813.25;5241581;28;20742;-80
2022/01/31 04:21:08;;;;;;;24.58;3.65;;;;;;;3.33;96.31;99795.50;5235914;28;20377;-79
2022/01/31 04:23:38;;;;;;;26.75;3.53;;;;;;;3.28;96.44;99802.47;5243953;28;20501;-81
2022/01/31 04:26:13;;;;;;;22.63;3.40;;;;;;;3.34;96.78;99794.63;5232738;28;20033;-80
2022/01/31 04:28:46;;;;;;;14.60;2.85;;;;;;;3.39;96.62;99785.88;5241573;28;20031;-81
2022/01/31 04:33:52;;;;;;;16.50;2.87;;;;;;;3.29;97.29;99757.69;5243796;28;20630;-78
2022/01/31 04:36:22;;;;;;;19.20;3.25;;;;;;;3.40;96.91;99748.03;5234676;28;20306;-80
2022/01/31 04:38:53;;;;;;;18.55;3.40;;;;;;;3.28;96.79;99743.97;5235130;28;20055;-78
2022/01/31 04:41:23;;;;;;;17.77;3.42;;;;;;;3.43;96.09;99727.28;5243318;28;20035;-80
2022/01/31 04:43:56;;;;;;;19.15;3.63;;;;;;;3.45;96.07;99718.66;5244431;28;20033;-78
2022/01/31 04:46:27;;;;;;;16.80;2.83;;;;;;;3.54;96.12;99709.84;5243672;28;20032;-79
2022/01/31 04:48:57;;;;;;;16.35;3.75;;;;;;;3.53;95.72;99706.41;5226110;28;20040;-80
2022/01/31 04:51:27;;;;;;;18.60;3.53;;;;;;;3.59;95.54;99695.97;5242069;28;20036;-79
2022/01/31 04:53:58;;;;;;;14.75;3.63;;;;;;;3.56;95.86;99684.84;5243913;28;20038;-78
2022/01/31 04:56:28;;;;;;;18.95;3.70;;;;;;;3.59;96.32;99678.72;5220936;28;20505;-80
2022/01/31 04:58:58;;;;;;;21.00;3.53;;;;;;;3.73;95.75;99671.53;5237067;28;20040;-81
2022/01/31 05:01:29;;;;;;;15.57;3.10;;;;;;;3.74;96.77;99669.75;5241968;28;20024;-81
2022/01/31 05:04:00;;;;;;;17.02;3.17;;;;;;;3.63;96.75;99656.25;5240615;28;20032;-80
2022/01/31 05:06:36;;;;;;;15.00;3.22;;;;;;;3.62;96.45;99654.56;5232574;28;20509;-80
2022/01/31 05:09:08;;;;;;;19.60;3.22;;;;;;;3.58;97.56;99656.34;5225630;28;20039;-80
2022/01/31 05:11:39;;;;;;;16.60;2.95;;;;;;;3.63;97.28;99641.59;5235075;28;20031;-79
2022/01/31 05:14:09;;;;;;;20.95;3.50;;;;;;;3.45;99.64;99641.19;5242817;28;20028;-81
2022/01/31 05:16:39;;;;;;;12.23;2.67;;;;;;;3.48;100.00;99642.81;5242586;28;20025;-80
2022/01/31 05:19:09;;;;;;;16.38;3.28;;;;;;;3.54;99.95;99645.28;5242699;28;20526;-79
2022/01/31 05:21:40;;;;;;;13.52;2.90;;;;;;;3.74;97.50;99634.47;5237249;28;20097;-81
2022/01/31 05:24:10;;;;;;;16.95;2.50;;;;;;;3.79;97.13;99626.63;5238727;28;20028;-80
2022/01/31 05:26:40;;;;;;;13.98;3.03;;;;;;;3.76;97.87;99614.59;5235145;28;20612;-79
2022/01/31 05:29:11;;;;;;;20.63;3.05;;;;;;;3.81;99.50;99609.34;5239689;28;20039;-80
2022/01/31 05:31:41;;;;;;;10.45;2.75;;;;;;;3.72;99.48;99594.91;5243126;28;20032;-81
2022/01/31 05:34:12;;;;;;;13.15;2.53;;;;;;;3.70;100.00;99594.09;5239572;28;20047;-80
2022/01/31 05:36:42;;;;;;;14.98;2.60;;;;;;;3.66;100.00;99586.44;5230976;28;20063;-79
2022/01/31 05:39:13;;;;;;;11.35;2.67;;;;;;;3.64;100.00;99581.31;5236614;28;20124;-79
2022/01/31 05:41:43;;;;;;;13.27;3.00;;;;;;;3.66;100.00;99574.41;5244127;28;20720;-80
2022/01/31 05:44:13;;;;;;;14.73;2.38;;;;;;;3.65;100.00;99582.16;5243107;28;20085;-79
2022/01/31 05:46:44;;;;;;;17.20;2.40;;;;;;;3.55;100.00;99577.25;5242940;28;20402;-79
2022/01/31 05:49:14;;;;;;;12.18;2.67;;;;;;;3.57;100.00;99562.56;5243427;28;20040;-81
2022/01/31 05:51:51;;;;;;;14.52;2.63;;;;;;;3.63;100.00;99553.78;5242954;28;20222;-78
2022/01/31 05:54:21;;;;;;;10.57;2.28;;;;;;;3.65;100.00;99559.75;5237347;28;20523;-80
2022/01/31 05:56:52;;;;;;;17.83;2.60;;;;;;;3.48;100.00;99552.44;5231216;28;20029;-79
2022/01/31 05:59:23;;;;;;;12.75;2.63;;;;;;;3.38;100.00;99540.66;5239508;28;20055;-80
2022/01/31 06:01:53;;;;;;;14.77;2.90;;;;;;;3.31;100.00;99542.53;5234917;28;20040;-79
2022/01/31 06:04:25;;;;;;;11.60;2.45;;;;;;;3.30;100.00;99537.38;5237118;28;20098;-81
2022/01/31 06:06:56;;;;;;;9.60;2.50;;;;;;;3.31;100.00;99524.44;5232816;28;20111;-78
2022/01/31 06:09:28;;;;;;;14.05;2.35;;;;;;;3.06;100.00;99512.16;5240540;28;20104;-81
2022/01/31 06:12:01;;;;;;;13.55;2.60;;;;;;;3.14;100.00;99512.81;5241836;28;20030;-80
2022/01/31 06:14:32;;;;;;;11.98;2.90;;;;;;;3.10;100.00;99503.44;5239867;28;20024;-78
2022/01/31 06:17:03;;;;;;;14.82;2.67;;;;;;;2.84;100.00;99500.63;5239022;28;20024;-80
2022/01/31 06:19:33;;;;;;;15.88;2.83;;;;;;;2.98;100.00;99495.97;5240355;28;20036;-80
2022/01/31 06:22:03;;;;;;;10.15;2.80;;;;;;;2.63;100.00;99489.03;5240516;28;20030;-79
2022/01/31 06:24:34;;;;;;;15.18;2.72;;;;;;;2.63;100.00;99481.28;5236237;28;20071;-80
2022/01/31 06:27:04;;;;;;;11.75;2.55;;;;;;;2.55;100.00;99488.34;5229656;28;20032;-80
2022/01/31 06:29:35;;;;;;;12.30;2.72;;;;;;;2.53;100.00;99478.94;5237940;28;20421;-80
2022/01/31 06:32:05;;;;;;;12.57;2.75;;;;;;;2.59;100.00;99471.06;5226827;28;20024;-79
2022/01/31 06:34:35;;;;;;;11.40;2.63;;;;;;;2.57;100.00;99465.09;5222258;28;20090;-80
2022/01/31 06:37:06;;;;;;;11.38;2.75;;;;;;;2.53;100.00;99463.47;5223948;28;20021;-79
2022/01/31 06:39:36;;;;;;;13.88;2.63;;;;;;;2.57;100.00;99450.50;5240183;28;20033;-80
2022/01/31 06:42:07;;;;;;;14.55;2.88;;;;;;;2.56;100.00;99450.50;5194458;28;20037;-84
2022/01/31 06:44:39;;;;;;;14.07;2.70;;;;;;;2.29;100.00;99448.50;5233777;28;20089;-82
2022/01/31 06:47:09;;;;;;;12.77;2.40;;;;;;;2.28;100.00;99442.53;5225195;28;20056;-81
2022/01/31 06:49:40;;;;;;;12.95;3.10;;;;;;;2.26;100.00;99433.97;5220046;28;20048;-83
2022/01/31 06:52:10;;;;;;;10.05;2.40;;;;;;;2.13;100.00;99426.53;5228800;28;20036;-83
2022/01/31 06:54:42;;;;;;;11.90;3.00;;;;;;;2.08;100.00;99421.47;5233110;28;20647;-81
2022/01/31 06:57:13;;;;;;;10.85;2.60;;;;;;;2.13;100.00;99424.78;5219934;28;20074;-80
2022/01/31 06:59:43;;;;;;;13.15;3.00;;;;;;;2.14;100.00;99416.19;5229966;28;20028;-81
2022/01/31 07:02:13;;;;;;;13.13;3.20;;;;;;;2.19;100.00;99416.91;5241111;28;20032;-80
2022/01/31 07:04:43;;;;;;;11.73;2.92;;;;;;;2.00;100.00;99405.31;5235119;28;20082;-81
2022/01/31 07:07:14;;;;;;;11.63;2.70;;;;;;;2.09;100.00;99409.41;5229991;28;20036;-81
2022/01/31 07:09:44;;;;;;;12.75;3.05;;;;;;;1.99;100.00;99405.34;5240722;28;20028;-83
2022/01/31 07:12:16;;;;;;;15.27;2.63;;;;;;;1.98;100.00;99401.09;5239569;28;20169;-82
2022/01/31 07:14:47;;;;;;;11.57;2.80;;;;;;;1.87;100.00;99403.00;5240608;28;20763;-81
2022/01/31 07:17:17;;;;;;;9.68;2.60;;;;;;;1.95;100.00;99395.97;5234312;28;20031;-80
2022/01/31 07:19:47;;;;;;;10.88;2.63;;;;;;;1.95;100.00;99386.53;5234206;28;20115;-82
2022/01/31 07:22:19;;;;;;;9.30;2.75;;;;;;;2.11;100.00;99382.75;5240357;28;20111;-83
2022/01/31 07:25:01;;;;;;;12.45;2.70;;;;;;;2.01;100.00;99391.53;5230936;28;20752;-80
2022/01/31 07:27:32;;;;;;;11.18;2.45;;;;;;;2.07;100.00;99380.28;5231783;28;20099;-80
2022/01/31 07:30:04;;;;;;;12.90;2.65;;;;;;;1.81;100.00;99379.97;5240723;28;20078;-83
2022/01/31 07:32:40;;;;;;;13.88;2.78;;;;;;;1.83;100.00;99383.34;5240859;28;20032;-81
2022/01/31 07:35:11;;;;;;;9.95;2.50;;;;;;;1.90;100.00;99380.63;5221734;28;20082;-80
2022/01/31 07:37:41;;;;;;;12.48;2.75;;;;;;;1.68;100.00;99375.94;5224920;28;20107;-81
2022/01/31 07:40:12;;;;;;;8.52;2.88;;;;;;;1.74;100.00;99368.06;5240203;28;20133;-83
2022/01/31 07:42:42;;;;;;;9.05;2.50;;;;;;;1.76;100.00;99362.91;5240167;28;20043;-80
2022/01/31 07:45:13;;;;;;;8.32;2.63;;;;;;;1.76;100.00;99362.91;5240347;28;20694;-80
2022/01/31 07:47:44;;;;;;;7.75;3.10;;;;;;;1.83;100.00;99365.34;5240439;28;20756;-82
2022/01/31 07:50:14;;;;;;;8.13;2.45;;;;;;;1.86;100.00;99355.78;5239480;28;20055;-82
2022/01/31 07:52:44;;;;;;;5.82;2.45;;;;;;;1.93;100.00;99348.78;5239412;28;20032;-81
2022/01/31 07:55:15;;;;;;;4.57;2.10;;;;;;;1.91;100.00;99342.81;5226385;28;20033;-80
2022/01/31 07:57:47;;;;;;;5.85;2.20;;;;;;;1.89;100.00;99349.75;5223878;28;20045;-81
2022/01/31 08:00:17;;;;;;;5.20;2.00;;;;;;;1.83;100.00;99339.56;5236872;28;20024;-81
2022/01/31 08:02:48;;;;;;;6.50;2.40;;;;;;;1.87;100.00;99336.06;5239726;28;20035;-83
2022/01/31 08:05:21;;;;;;;8.85;2.30;;;;;;;1.82;100.00;99335.31;5228791;28;20067;-80
2022/01/31 08:07:51;;;;;;;6.20;2.13;;;;;;;1.80;100.00;99327.59;5231449;28;20032;-81
2022/01/31 08:10:22;;;;;;;4.00;1.85;;;;;;;1.57;100.00;99323.78;5238593;28;20025;-81
2022/01/31 08:12:54;;;;;;;4.72;2.10;;;;;;;1.76;100.00;99322.53;5239209;28;20043;-80
2022/01/31 08:15:28;;;;;;;5.30;1.83;;;;;;;1.76;100.00;99312.25;5239608;28;20584;-80
2022/01/31 08:17:58;;;;;;;5.07;2.05;;;;;;;1.85;100.00;99315.47;5239945;28;20052;-82
2022/01/31 08:20:28;;;;;;;2.60;1.52;;;;;;;1.78;100.00;99311.34;5239465;28;20033;-83
2022/01/31 08:22:58;;;;;;;4.10;1.83;;;;;;;1.84;100.00;99305.22;5239316;28;20024;-81
2022/01/31 08:25:29;;;;;;;2.90;1.77;;;;;;;1.74;100.00;99303.72;5231625;28;20082;-81
2022/01/31 08:28:05;;;;;;;5.15;1.88;;;;;;;1.76;100.00;99303.69;5231723;28;20037;-80
2022/01/31 08:30:45;;;;;;;3.25;1.70;;;;;;;1.85;100.00;99301.75;5239549;28;20043;-79
2022/01/31 08:33:32;;;;;;;4.25;1.60;;;;;;;1.73;100.00;99302.00;5238858;28;20441;-79
2022/01/31 08:36:07;;;;;;;4.88;1.35;;;;;;;1.61;100.00;99297.09;5229222;28;20036;-82
2022/01/31 08:38:40;;;;;;;2.65;1.45;;;;;;;1.67;100.00;99291.00;5231382;28;20409;-79
2022/01/31 08:41:12;;;;;;;2.22;1.20;;;;;;;1.80;100.00;99290.72;5239437;28;20490;-80
2022/01/31 08:43:43;;;;;;;4.30;1.40;;;;;;;1.82;100.00;99283.81;5239272;28;20071;-81
2022/01/31 08:46:14;;;;;;;2.33;1.30;;;;;;;1.69;100.00;99291.81;5239771;28;20469;-81
2022/01/31 08:48:44;;;;;;;3.08;1.33;;;;;;;1.62;100.00;99285.97;5241034;28;20044;-80
2022/01/31 08:51:15;;;;;;;2.50;1.40;;;;;;;1.72;100.00;99281.47;5239311;28;20081;-82
2022/01/31 08:53:48;;;;;;;1.95;1.30;;;;;;;1.68;100.00;99283.25;5239064;28;20675;-84
2022/01/31 08:56:18;;;;;;;2.90;1.30;;;;;;;1.80;100.00;99281.25;5223097;28;20036;-81
2022/01/31 08:58:49;;;;;;;3.55;1.45;;;;;;;1.84;100.00;99280.31;5232991;28;20036;-80
2022/01/31 09:01:22;;;;;;;3.30;1.40;;;;;;;1.78;100.00;99287.31;5240968;28;20047;-83
2022/01/31 09:06:26;;;;;;;2.08;1.20;;;;;;;1.66;100.00;99292.72;5226413;28;20025;-80
2022/01/31 09:08:57;;;;;;;1.67;1.00;;;;;;;1.88;100.00;99288.81;5237356;28;20046;-83
2022/01/31 09:11:29;;;;;;;1.92;1.10;;;;;;;1.96;100.00;99281.78;5242301;28;20029;-84
2022/01/31 09:14:00;;;;;;;2.60;1.10;;;;;;;1.91;100.00;99278.44;5240832;28;20028;-81
2022/01/31 09:16:30;;;;;;;2.50;0.88;;;;;;;2.00;100.00;99276.50;5242584;28;20394;-85
2022/01/31 09:19:02;;;;;;;2.28;1.05;;;;;;;1.85;100.00;99276.84;5242765;28;20024;-81
2022/01/31 09:21:34;;;;;;;2.17;1.00;;;;;;;2.03;100.00;99266.13;5242506;28;20101;-85
2022/01/31 09:24:04;;;;;;;2.10;1.00;;;;;;;2.11;100.00;99277.13;5239156;28;20025;-86
2022/01/31 09:26:36;;;;;;;1.73;1.17;;;;;;;2.08;100.00;99269.47;5229929;28;20406;-82
2022/01/31 09:29:07;;;;;;;2.25;1.10;;;;;;;2.02;100.00;99267.00;5222167;28;20383;-83
2022/01/31 09:31:37;;;;;;;2.67;1.00;;;;;;;1.86;100.00;99257.09;5221569;28;20090;-83
2022/01/31 09:34:07;;;;;;;2.35;1.17;;;;;;;1.82;100.00;99271.75;5226773;28;20024;-82
2022/01/31 09:36:38;;;;;;;2.10;1.27;;;;;;;2.18;100.00;99265.78;5225793;28;20025;-82
2022/01/31 09:39:08;;;;;;;1.83;1.08;;;;;;;1.93;100.00;99258.66;5237998;28;20036;-82
2022/01/31 09:41:41;;;;;;;2.25;1.10;;;;;;;1.89;100.00;99262.19;5242329;28;20059;-84
2022/01/31 09:46:53;;;;;;;5.13;1.48;;;;;;;2.32;100.00;99268.06;5215425;28;20136;-76
2022/01/31 09:49:23;;;;;;;3.47;1.40;;;;;;;2.27;100.00;99263.00;5223559;28;20536;-76
2022/01/31 09:51:54;;;;;;;2.45;1.30;;;;;;;2.22;100.00;99257.13;5222128;28;20033;-76
2022/01/31 09:54:27;;;;;;;3.17;1.63;;;;;;;2.04;100.00;99267.00;5215788;28;20044;-77
2022/01/31 09:56:58;;;;;;;2.40;1.40;;;;;;;2.14;100.00;99274.47;5203602;28;20057;-76
2022/01/31 09:59:28;;;;;;;1.98;1.20;;;;;;;2.17;100.00;99266.66;5211304;28;20036;-78
2022/01/31 10:02:07;;;;;;;2.45;1.73;;;;;;;2.31;100.00;99266.38;5212895;28;20029;-77
2022/01/31 10:04:44;;;;;;;2.88;1.80;;;;;;;2.40;100.00;99267.00;5202187;28;20033;-76
2022/01/31 10:07:15;;;;;;;2.50;1.67;;;;;;;2.48;100.00;99274.56;5198426;28;20026;-76
2022/01/31 10:09:48;;;;;;;4.25;1.40;;;;;;;2.51;100.00;99274.47;5212406;28;20042;-77
2022/01/31 10:18:02;;;;;;;3.40;1.75;;;;;;;3.07;100.00;99274.72;5216010;28;20119;-78
2022/01/31 10:20:35;;;;;;;5.18;2.10;;;;;;;2.94;100.00;99277.66;5217055;28;20040;-77
2022/01/31 10:23:10;;;;;;;4.60;2.30;;;;;;;2.82;100.00;99271.09;5212009;28;20029;-79
2022/01/31 10:25:41;;;;;;;;;;;;;;;2.81;100.00;99271.09;5196931;28;20025;-77
2022/01/31 10:28:19;;;;;;;5.07;2.22;;;;;;;3.03;100.00;99282.59;5202740;28;20412;-77
2022/01/31 10:30:53;;;;;;;6.40;2.30;;;;;;;2.85;100.00;99293.38;5210638;28;20093;-79
2022/01/31 10:33:27;;;;;;;4.90;2.55;;;;;;;2.95;100.00;99287.09;5210001;28;20092;-76
2022/01/31 10:35:57;;;;;;;6.13;2.80;;;;;;;3.06;100.00;99288.50;5201152;28;20033;-78
2022/01/31 10:38:35;;;;;;;7.38;2.50;;;;;;;2.87;100.00;99292.44;5206329;28;20044;-79
2022/01/31 10:50:48;;;;;;;5.07;2.63;;;;;;;3.04;100.00;99289.44;5204396;28;20060;-78
2022/01/31 10:53:19;;;;;;;5.50;2.47;;;;;;;2.93;100.00;99299.19;5191574;28;20128;-78
2022/01/31 10:55:55;;;;;;;7.40;2.45;;;;;;;2.92;100.00;99288.03;5190571;28;20041;-78
2022/01/31 10:58:27;;;;;;;4.15;2.40;;;;;;;2.96;100.00;99288.78;5196049;28;20454;-78
2022/01/31 11:01:12;;;;;;;5.28;2.85;;;;;;;2.83;100.00;99290.00;5198779;28;20033;-78
2022/01/31 11:03:45;;;;;;;6.75;2.53;;;;;;;2.82;100.00;99296.03;5190639;28;20091;-78
2022/01/31 11:06:15;;;;;;;6.97;3.10;;;;;;;2.74;100.00;99297.94;5183036;28;20123;-78
2022/01/31 11:08:46;;;;;;;5.10;2.97;;;;;;;2.95;100.00;99292.25;5195415;28;20117;-78
2022/01/31 11:11:19;;;;;;;7.68;3.20;;;;;;;3.04;100.00;99292.00;5196947;28;20029;-78
2022/01/31 11:13:49;;;;;;;5.53;3.50;;;;;;;2.78;100.00;99294.41;5189304;28;20029;-78
2022/01/31 11:16:20;;;;;;;8.02;3.63;;;;;;;3.06;100.00;99285.91;5197544;28;20055;-78
2022/01/31 11:18:53;;;;;;;7.32;3.20;;;;;;;2.80;100.00;99298.66;5198706;28;20044;-78
2022/01/31 11:21:28;;;;;;;7.35;3.30;;;;;;;3.22;100.00;99286.38;5198759;28;20535;-78
2022/01/31 11:24:02;;;;;;;6.57;3.03;;;;;;;2.75;100.00;99299.63;5196858;28;20025;-78
2022/01/31 11:26:39;;;;;;;7.60;2.97;;;;;;;2.85;100.00;99308.84;5190991;28;20403;-78
2022/01/31 11:29:10;;;;;;;6.25;3.03;;;;;;;3.04;100.00;99298.00;5198405;28;20055;-78
2022/01/31 11:31:40;;;;;;;8.15;3.13;;;;;;;3.14;100.00;99302.06;5199567;28;20029;-79
2022/01/31 11:34:11;;;;;;;9.32;3.67;;;;;;;3.14;100.00;99304.63;5187155;28;20033;-78
2022/01/31 11:36:43;;;;;;;5.95;3.17;;;;;;;3.31;100.00;99312.78;5183810;28;20518;-78
2022/01/31 11:39:16;;;;;;;8.80;4.28;;;;;;;2.95;100.00;99310.28;5182393;28;20306;-78
2022/01/31 11:41:52;;;;;;;7.05;4.32;;;;;;;3.25;100.00;99312.09;5189817;28;20029;-78
2022/01/31 11:44:31;;;;;;;8.23;4.53;;;;;;;3.12;100.00;99331.34;5198517;28;20033;-78
2022/01/31 11:47:05;;;;;;;7.75;3.75;;;;;;;3.10;100.00;99330.56;5197622;28;20028;-78
2022/01/31 11:49:55;;;;;;;6.70;4.22;;;;;;;2.85;100.00;99335.47;5198388;28;20062;-78
2022/01/31 11:52:30;;;;;;;5.75;3.90;;;;;;;3.03;100.00;99340.19;5195791;28;20475;-78
2022/01/31 11:55:04;;;;;;;6.03;3.58;;;;;;;3.08;100.00;99340.06;5191991;28;20029;-78
2022/01/31 11:57:37;;;;;;;6.80;3.63;;;;;;;2.93;100.00;99340.44;5193557;28;20335;-78
2022/01/31 12:00:11;;;;;;;5.82;3.60;;;;;;;2.82;100.00;99343.31;5182139;28;20025;-78
2022/01/31 12:02:48;;;;;;;7.63;3.80;;;;;;;3.07;100.00;99349.56;5199161;28;20315;-78
2022/01/31 12:05:31;;;;;;;7.13;4.18;;;;;;;2.97;100.00;99342.06;5191785;28;20030;-78
2022/01/31 12:08:14;;;;;;;6.30;4.15;;;;;;;2.92;100.00;99349.06;5191218;28;20195;-77
2022/01/31 12:10:54;;;;;;;6.95;3.85;;;;;;;3.20;100.00;99355.25;5181160;28;20041;-77
2022/01/31 12:13:43;;;;;;;6.43;3.88;;;;;;;3.08;100.00;99352.97;5187837;28;20865;-77